Time;durP1;ratioP1;P1;durP2;ratioP2;P2;SDS_P1;SDS_P2;PMS_P1;PMS_P2;Temp;Humidity;BMP_temperature;BMP_pressure;BME280_temperature;BME280_humidity;BME280_pressure;Samples;Min_cycle;Max_cycle;Signal;HPM_P1;HPM_P2
2023/12/16 00:02:08;;;;;;;24.73;9.75;;;9.50;99.90;;;;;;4899897;29;20155;-76
2023/12/16 00:04:34;;;;;;;27.50;10.25;;;9.50;99.90;;;;;;4884078;29;20342;-77
2023/12/16 00:06:59;;;;;;;29.85;11.38;;;9.50;99.90;;;;;;4899681;29;20084;-77
2023/12/16 00:09:25;;;;;;;33.00;11.43;;;9.50;99.90;;;;;;4884242;29;20039;-77
2023/12/16 00:11:52;;;;;;;25.50;11.25;;;9.50;99.90;;;;;;4916767;29;20037;-77
2023/12/16 00:14:17;;;;;;;31.23;11.93;;;9.50;99.90;;;;;;4916379;29;20040;-77
2023/12/16 00:16:44;;;;;;;23.63;11.60;;;9.50;99.90;;;;;;4899363;29;20040;-76
2023/12/16 00:19:10;;;;;;;28.92;10.65;;;9.50;99.90;;;;;;4899117;29;20494;-77
2023/12/16 00:21:37;;;;;;;29.20;10.85;;;9.40;99.90;;;;;;4899544;29;20063;-76
2023/12/16 00:24:03;;;;;;;30.13;9.52;;;9.40;99.90;;;;;;4883584;29;20032;-77
2023/12/16 00:26:28;;;;;;;23.60;8.10;;;9.40;99.90;;;;;;4898955;29;20453;-76
2023/12/16 00:28:54;;;;;;;23.50;7.93;;;9.40;99.90;;;;;;4883504;29;20127;-76
2023/12/16 00:31:20;;;;;;;23.75;8.27;;;9.40;99.90;;;;;;4899039;29;20114;-75
2023/12/16 00:33:45;;;;;;;21.88;6.82;;;9.40;99.90;;;;;;4898845;29;20063;-76
2023/12/16 00:36:11;;;;;;;22.55;6.25;;;9.40;99.90;;;;;;4898994;29;20055;-73
2023/12/16 00:38:37;;;;;;;22.92;7.10;;;9.40;99.90;;;;;;4921065;29;20167;-73
2023/12/16 00:41:02;;;;;;;27.05;7.63;;;9.40;99.90;;;;;;4905103;29;20142;-73
2023/12/16 00:43:28;;;;;;;17.42;6.20;;;9.40;99.90;;;;;;4921890;29;20036;-73
2023/12/16 00:45:54;;;;;;;20.20;6.00;;;9.30;99.90;;;;;;4921818;29;20473;-79
2023/12/16 00:48:20;;;;;;;18.05;5.65;;;9.30;99.90;;;;;;4905431;29;20079;-72
2023/12/16 00:50:45;;;;;;;20.08;5.78;;;9.30;99.90;;;;;;4905219;29;20091;-77
2023/12/16 00:53:12;;;;;;;21.23;4.20;;;9.30;99.90;;;;;;4922295;29;20072;-75
2023/12/16 00:55:40;;;;;;;24.65;6.30;;;9.30;99.90;;;;;;4922264;29;20032;-75
2023/12/16 00:58:07;;;;;;;19.23;4.20;;;9.30;99.90;;;;;;4890276;29;20036;-74
2023/12/16 01:00:32;;;;;;;15.02;3.78;;;9.30;99.90;;;;;;4905856;29;20043;-75
2023/12/16 01:02:58;;;;;;;18.13;4.38;;;9.30;99.90;;;;;;4923149;29;20040;-75
2023/12/16 01:05:24;;;;;;;17.55;4.20;;;9.40;99.90;;;;;;4923014;29;20048;-76
2023/12/16 01:07:50;;;;;;;14.73;3.05;;;9.40;99.90;;;;;;4905577;29;20039;-75
2023/12/16 01:10:16;;;;;;;10.52;3.15;;;9.40;99.90;;;;;;4922099;29;20036;-75
2023/12/16 01:12:41;;;;;;;12.73;2.90;;;9.40;99.90;;;;;;4905148;29;20044;-74
2023/12/16 01:15:08;;;;;;;14.68;2.85;;;9.40;99.90;;;;;;4905619;29;20377;-72
2023/12/16 01:17:33;;;;;;;11.65;2.72;;;9.40;99.90;;;;;;4905395;29;20050;-72
2023/12/16 01:19:59;;;;;;;14.25;3.15;;;9.40;99.90;;;;;;4922046;29;20036;-72
2023/12/16 01:22:25;;;;;;;17.30;2.92;;;9.40;99.90;;;;;;4921729;29;20044;-72
2023/12/16 01:24:50;;;;;;;14.25;2.95;;;9.40;99.90;;;;;;4889424;29;20032;-73
2023/12/16 01:27:16;;;;;;;16.98;2.88;;;9.40;99.90;;;;;;4922066;29;20449;-73
2023/12/16 01:29:42;;;;;;;17.27;2.58;;;9.40;99.90;;;;;;4921680;29;20442;-73
2023/12/16 01:32:08;;;;;;;14.50;2.60;;;9.40;99.90;;;;;;4904493;29;20034;-74
2023/12/16 01:34:33;;;;;;;10.80;2.38;;;9.40;99.90;;;;;;4921991;29;20414;-73
2023/12/16 01:36:59;;;;;;;18.65;2.95;;;9.30;99.90;;;;;;4905385;29;20043;-74
2023/12/16 01:39:25;;;;;;;16.23;2.58;;;9.30;99.90;;;;;;4905057;29;20040;-74
2023/12/16 01:41:50;;;;;;;17.55;2.65;;;9.30;99.90;;;;;;4905256;29;20146;-74
2023/12/16 01:44:16;;;;;;;11.68;2.25;;;9.30;99.90;;;;;;4922416;29;20043;-73
2023/12/16 01:46:42;;;;;;;13.50;2.53;;;9.30;99.90;;;;;;4889629;29;20040;-74
2023/12/16 01:49:09;;;;;;;11.38;2.30;;;9.40;99.90;;;;;;4902731;29;20043;-75
2023/12/16 01:51:35;;;;;;;14.80;2.15;;;9.40;99.90;;;;;;4902321;29;20032;-74
2023/12/16 01:54:01;;;;;;;19.25;3.42;;;9.30;99.90;;;;;;4919305;29;20036;-74
2023/12/16 01:56:29;;;;;;;11.52;2.20;;;9.40;99.90;;;;;;4902309;29;20038;-74
2023/12/16 01:58:55;;;;;;;13.73;2.42;;;9.40;99.90;;;;;;4918916;29;20032;-75
2023/12/16 02:01:21;;;;;;;17.65;2.20;;;9.40;99.90;;;;;;4886703;29;20385;-75
2023/12/16 02:03:47;;;;;;;11.57;2.28;;;9.30;99.90;;;;;;4901747;29;20040;-74
2023/12/16 02:06:14;;;;;;;16.92;3.17;;;9.30;99.90;;;;;;4919071;29;20032;-75
2023/12/16 02:08:40;;;;;;;22.27;2.72;;;9.30;99.90;;;;;;4919402;29;20036;-74
2023/12/16 02:11:10;;;;;;;13.88;2.35;;;9.30;99.90;;;;;;4901946;29;20378;-74
2023/12/16 02:13:36;;;;;;;14.35;2.40;;;9.30;99.90;;;;;;4902208;29;20410;-74
2023/12/16 02:16:02;;;;;;;16.95;2.53;;;9.30;99.90;;;;;;4901574;29;20043;-74
2023/12/16 02:18:28;;;;;;;11.65;2.20;;;9.30;99.90;;;;;;4918460;29;20420;-74
2023/12/16 02:20:53;;;;;;;13.35;2.00;;;9.30;99.90;;;;;;4901386;29;20028;-74
2023/12/16 02:23:19;;;;;;;13.95;3.58;;;9.20;99.90;;;;;;4886296;29;20081;-76
2023/12/16 02:25:45;;;;;;;11.82;2.13;;;9.30;99.90;;;;;;4886284;29;20123;-77
2023/12/16 02:28:11;;;;;;;14.07;2.20;;;9.20;99.90;;;;;;4918678;29;20035;-75
2023/12/16 02:30:37;;;;;;;16.17;3.10;;;9.20;99.90;;;;;;4918305;29;20028;-76
2023/12/16 02:33:03;;;;;;;13.45;2.42;;;9.20;99.90;;;;;;4918205;29;20032;-76
2023/12/16 02:35:29;;;;;;;14.02;2.60;;;9.20;99.90;;;;;;4917972;29;20028;-74
2023/12/16 02:37:54;;;;;;;16.77;2.80;;;9.20;99.90;;;;;;4901520;29;20130;-76
2023/12/16 02:40:21;;;;;;;13.60;2.67;;;9.20;99.90;;;;;;4901740;29;20055;-76
2023/12/16 02:42:47;;;;;;;16.50;3.10;;;9.10;99.90;;;;;;4901802;29;20521;-75
2023/12/16 02:45:13;;;;;;;17.95;2.75;;;9.10;99.90;;;;;;4917852;29;20114;-73
2023/12/16 02:47:38;;;;;;;14.07;2.17;;;9.10;99.90;;;;;;4901388;29;20137;-75
2023/12/16 02:50:07;;;;;;;15.18;3.00;;;9.10;99.90;;;;;;4918415;29;20043;-76
2023/12/16 02:52:33;;;;;;;12.18;2.72;;;9.00;99.90;;;;;;4901963;29;20505;-75
2023/12/16 02:54:58;;;;;;;18.65;3.00;;;8.90;99.90;;;;;;4901354;29;20059;-76
2023/12/16 02:57:24;;;;;;;15.07;3.10;;;8.90;99.90;;;;;;4917620;29;20492;-76
2023/12/16 02:59:49;;;;;;;18.52;3.08;;;8.90;99.90;;;;;;4869883;29;20563;-76
2023/12/16 03:02:15;;;;;;;14.77;2.90;;;8.90;99.90;;;;;;4917974;29;20076;-77
2023/12/16 03:04:41;;;;;;;16.85;3.42;;;8.90;99.90;;;;;;4917978;29;20178;-76
2023/12/16 03:07:07;;;;;;;15.35;3.33;;;8.90;99.90;;;;;;4917816;29;20056;-76
2023/12/16 03:09:33;;;;;;;16.52;3.03;;;8.90;99.90;;;;;;4900660;29;20133;-76
2023/12/16 03:12:00;;;;;;;15.50;3.17;;;8.90;99.90;;;;;;4900579;29;20032;-75
2023/12/16 03:14:26;;;;;;;14.32;3.33;;;8.90;99.90;;;;;;4917771;29;20036;-76
2023/12/16 03:16:52;;;;;;;15.23;3.40;;;8.90;99.90;;;;;;4917447;29;20032;-76
2023/12/16 03:19:18;;;;;;;15.85;3.40;;;8.90;99.90;;;;;;4917316;29;20029;-76
2023/12/16 03:21:43;;;;;;;11.50;2.90;;;8.90;99.90;;;;;;4900332;29;20039;-76
2023/12/16 03:24:09;;;;;;;17.33;3.83;;;8.90;99.90;;;;;;4900400;29;20063;-77
2023/12/16 03:26:35;;;;;;;13.27;3.08;;;8.90;99.90;;;;;;4900499;29;20032;-76
2023/12/16 03:29:01;;;;;;;17.33;3.42;;;8.80;99.90;;;;;;4885089;29;20032;-75
2023/12/16 03:31:27;;;;;;;17.35;3.85;;;8.80;99.90;;;;;;4917401;29;20091;-75
2023/12/16 03:33:53;;;;;;;16.80;3.58;;;8.80;99.90;;;;;;4917603;29;20040;-75
2023/12/16 03:36:19;;;;;;;18.58;4.30;;;8.80;99.90;;;;;;4917482;29;20067;-76
2023/12/16 03:38:45;;;;;;;16.67;3.97;;;8.80;99.90;;;;;;4919310;29;20036;-75
2023/12/16 03:41:12;;;;;;;18.73;3.55;;;8.80;99.90;;;;;;4919033;29;20124;-75
2023/12/16 03:43:37;;;;;;;14.07;4.25;;;8.80;99.90;;;;;;4919353;29;20032;-75
2023/12/16 03:46:03;;;;;;;13.57;4.03;;;8.70;99.90;;;;;;4919212;29;20094;-75
2023/12/16 03:48:29;;;;;;;16.50;4.50;;;8.70;99.90;;;;;;4885673;29;20119;-75
2023/12/16 03:50:55;;;;;;;18.33;5.20;;;8.70;99.90;;;;;;4917447;29;20118;-75
2023/12/16 03:53:21;;;;;;;21.42;4.65;;;8.70;99.90;;;;;;4917404;29;20557;-75
2023/12/16 03:55:46;;;;;;;15.25;4.72;;;8.70;99.90;;;;;;4899948;29;20161;-75
2023/12/16 03:58:12;;;;;;;20.42;4.57;;;8.70;99.90;;;;;;4900468;29;20104;-75
2023/12/16 04:00:38;;;;;;;15.90;3.80;;;8.70;99.90;;;;;;4916976;29;20024;-75
2023/12/16 04:03:03;;;;;;;14.77;4.13;;;8.70;99.90;;;;;;4916919;29;20144;-75
2023/12/16 04:05:29;;;;;;;15.63;4.43;;;8.70;99.90;;;;;;4900055;29;20036;-76
2023/12/16 04:07:55;;;;;;;12.25;3.95;;;8.70;99.90;;;;;;4916659;29;20449;-75
2023/12/16 04:10:20;;;;;;;18.70;4.13;;;8.60;99.90;;;;;;4917370;29;20036;-75
2023/12/16 04:12:46;;;;;;;19.75;4.75;;;8.60;99.90;;;;;;4884137;29;20484;-75
2023/12/16 04:15:12;;;;;;;17.80;4.78;;;8.50;99.90;;;;;;4917012;29;20428;-75
2023/12/16 04:17:38;;;;;;;18.77;4.70;;;8.50;99.90;;;;;;4900049;29;20354;-75
2023/12/16 04:20:04;;;;;;;25.23;4.97;;;8.50;99.90;;;;;;4899955;29;20028;-75
2023/12/16 04:22:30;;;;;;;16.75;4.30;;;8.50;99.90;;;;;;4916540;29;20032;-76
2023/12/16 04:24:57;;;;;;;19.38;4.88;;;8.40;99.90;;;;;;4899400;29;20034;-77
2023/12/16 04:27:27;;;;;;;20.80;4.13;;;8.50;99.90;;;;;;4916519;29;20032;-76
2023/12/16 04:29:52;;;;;;;18.58;4.70;;;8.50;99.90;;;;;;4916694;29;20028;-77
2023/12/16 04:32:18;;;;;;;15.65;4.38;;;8.50;99.90;;;;;;4884001;29;20047;-78
2023/12/16 04:34:44;;;;;;;13.00;4.00;;;8.50;99.90;;;;;;4899629;29;20055;-78
2023/12/16 04:37:10;;;;;;;18.95;4.28;;;8.50;99.90;;;;;;4899183;29;20470;-78
2023/12/16 04:39:36;;;;;;;12.95;3.58;;;8.50;99.90;;;;;;4883702;29;20032;-76
2023/12/16 04:42:02;;;;;;;16.50;4.25;;;8.50;99.90;;;;;;4899311;29;20059;-76
2023/12/16 04:44:28;;;;;;;19.35;4.65;;;8.50;99.90;;;;;;4899463;29;20046;-75
2023/12/16 04:46:53;;;;;;;15.07;3.80;;;8.50;99.90;;;;;;4899480;29;20175;-75
2023/12/16 04:49:19;;;;;;;14.55;3.40;;;8.50;99.90;;;;;;4883959;29;20043;-77
2023/12/16 04:51:45;;;;;;;16.20;4.20;;;8.50;99.90;;;;;;4898977;29;20047;-77
2023/12/16 04:54:11;;;;;;;17.75;4.22;;;8.50;99.90;;;;;;4868812;29;20322;-77
2023/12/16 04:56:37;;;;;;;10.82;3.85;;;8.40;99.90;;;;;;4899511;29;20024;-77
2023/12/16 04:59:03;;;;;;;19.75;5.38;;;8.40;99.90;;;;;;4915817;29;20485;-77
2023/12/16 05:01:28;;;;;;;22.13;4.22;;;8.40;99.90;;;;;;4916304;29;20033;-77
2023/12/16 05:03:55;;;;;;;15.20;4.22;;;8.50;99.90;;;;;;4899006;29;20443;-78
2023/12/16 05:06:21;;;;;;;17.05;4.35;;;8.40;99.90;;;;;;4868956;29;20067;-77
2023/12/16 05:08:47;;;;;;;18.15;3.53;;;8.40;99.90;;;;;;4899100;29;20060;-76
2023/12/16 05:11:12;;;;;;;23.20;4.35;;;8.30;99.90;;;;;;4916074;29;20032;-76
2023/12/16 05:13:38;;;;;;;16.98;4.15;;;8.30;99.90;;;;;;4883679;29;20036;-75
2023/12/16 05:16:04;;;;;;;17.67;4.00;;;8.30;99.90;;;;;;4898945;29;20119;-75
2023/12/16 05:18:30;;;;;;;17.65;4.18;;;8.30;99.90;;;;;;4883265;29;20036;-76
2023/12/16 05:20:55;;;;;;;23.63;4.47;;;8.30;99.90;;;;;;4916235;29;20127;-75
2023/12/16 05:23:21;;;;;;;20.15;5.15;;;8.20;99.90;;;;;;4883059;29;20044;-77
2023/12/16 05:25:47;;;;;;;16.10;4.30;;;8.30;99.90;;;;;;4902630;29;20036;-76
2023/12/16 05:28:12;;;;;;;23.70;4.57;;;8.20;99.90;;;;;;4902249;29;20163;-77
2023/12/16 05:30:38;;;;;;;18.63;4.45;;;8.30;99.90;;;;;;4919518;29;20034;-76
2023/12/16 05:33:03;;;;;;;22.20;4.25;;;8.30;99.90;;;;;;4902076;29;20040;-76
2023/12/16 05:35:29;;;;;;;17.17;4.32;;;8.30;99.90;;;;;;4902945;29;20036;-76
2023/12/16 05:37:55;;;;;;;15.98;4.40;;;8.30;99.90;;;;;;4902380;29;20084;-76
2023/12/16 05:40:20;;;;;;;18.15;4.72;;;8.30;99.90;;;;;;4919078;29;20111;-76
2023/12/16 05:42:46;;;;;;;16.67;4.00;;;8.20;99.90;;;;;;4902848;29;20036;-76
2023/12/16 05:45:13;;;;;;;17.45;4.50;;;8.20;99.90;;;;;;4902740;29;20040;-76
2023/12/16 05:47:39;;;;;;;17.38;4.10;;;8.20;99.90;;;;;;4871467;29;20470;-76
2023/12/16 05:50:05;;;;;;;17.88;4.50;;;8.20;99.90;;;;;;4918658;29;20075;-76
2023/12/16 05:52:31;;;;;;;23.45;4.90;;;8.20;99.90;;;;;;4919068;29;20067;-76
2023/12/16 05:54:57;;;;;;;17.02;4.32;;;8.10;99.90;;;;;;4902175;29;20055;-76
2023/12/16 05:57:23;;;;;;;17.70;4.05;;;8.10;99.90;;;;;;4919205;29;20035;-76
2023/12/16 05:59:48;;;;;;;21.05;5.05;;;8.10;99.90;;;;;;4887055;29;20033;-76
2023/12/16 06:02:14;;;;;;;24.05;4.70;;;8.10;99.90;;;;;;4918960;29;20024;-76
2023/12/16 06:04:40;;;;;;;20.85;4.88;;;8.00;99.90;;;;;;4918884;29;20067;-75
2023/12/16 06:07:05;;;;;;;19.83;4.93;;;8.00;99.90;;;;;;4871161;29;20036;-75
2023/12/16 06:09:31;;;;;;;21.92;4.80;;;7.90;99.90;;;;;;4919056;29;20060;-75
2023/12/16 06:11:57;;;;;;;24.95;4.50;;;7.90;99.90;;;;;;4918415;29;20052;-76
2023/12/16 06:14:23;;;;;;;18.85;4.53;;;7.90;99.90;;;;;;4918769;29;20033;-76
2023/12/16 06:16:49;;;;;;;26.70;4.70;;;7.90;99.90;;;;;;4886525;29;20032;-76
2023/12/16 06:19:15;;;;;;;21.00;4.07;;;7.90;99.90;;;;;;4903404;29;20453;-76
2023/12/16 06:21:40;;;;;;;21.73;4.63;;;7.90;99.90;;;;;;4904129;29;20063;-76
2023/12/16 06:24:08;;;;;;;20.88;4.85;;;8.00;99.90;;;;;;4903502;29;20036;-76
2023/12/16 06:26:34;;;;;;;21.20;4.68;;;7.90;99.90;;;;;;4887151;29;20127;-76
2023/12/16 06:29:00;;;;;;;25.13;4.40;;;7.90;99.90;;;;;;4902001;29;20470;-76
2023/12/16 06:31:25;;;;;;;22.73;5.25;;;8.00;99.90;;;;;;4902180;29;20040;-76
2023/12/16 06:33:51;;;;;;;22.48;5.15;;;7.90;99.90;;;;;;4901496;29;20460;-76
2023/12/16 06:36:16;;;;;;;17.40;4.32;;;7.90;99.90;;;;;;4900747;29;20039;-76
2023/12/16 06:38:42;;;;;;;21.63;5.30;;;8.00;99.90;;;;;;4885727;29;20028;-75
2023/12/16 06:41:08;;;;;;;22.10;4.25;;;8.00;99.90;;;;;;4870427;29;20052;-76
2023/12/16 06:43:33;;;;;;;22.50;4.68;;;7.90;99.90;;;;;;4885541;29;20464;-75
2023/12/16 06:45:59;;;;;;;20.77;4.60;;;7.90;99.90;;;;;;4901230;29;20476;-76
2023/12/16 06:48:25;;;;;;;24.83;5.32;;;7.90;99.90;;;;;;4918157;29;20032;-76
2023/12/16 06:50:50;;;;;;;21.73;4.93;;;7.90;99.90;;;;;;4885731;29;20032;-75
2023/12/16 06:53:17;;;;;;;20.30;4.97;;;7.90;99.90;;;;;;4918050;29;20036;-75
2023/12/16 06:55:42;;;;;;;24.02;5.88;;;8.00;99.90;;;;;;4885544;29;20055;-76
2023/12/16 06:58:08;;;;;;;22.05;5.32;;;8.00;99.90;;;;;;4870218;29;20063;-76
2023/12/16 07:00:34;;;;;;;20.67;4.03;;;8.00;99.90;;;;;;4917832;29;20403;-77
2023/12/16 07:03:00;;;;;;;21.27;4.38;;;8.00;99.90;;;;;;4900822;29;20040;-76
2023/12/16 07:05:27;;;;;;;17.98;3.88;;;8.00;99.90;;;;;;4885738;29;20063;-76
2023/12/16 07:07:54;;;;;;;14.77;4.40;;;8.00;99.90;;;;;;4918022;29;20028;-76
2023/12/16 07:10:20;;;;;;;20.35;4.72;;;8.00;99.90;;;;;;4917622;29;20500;-76
2023/12/16 07:12:46;;;;;;;20.25;4.60;;;8.00;99.90;;;;;;4917553;29;20071;-76
2023/12/16 07:15:12;;;;;;;24.48;5.47;;;8.00;99.90;;;;;;4917644;29;20492;-75
2023/12/16 07:17:37;;;;;;;18.45;4.90;;;8.00;99.90;;;;;;4900295;29;20044;-77
2023/12/16 07:20:03;;;;;;;27.85;4.70;;;8.10;99.90;;;;;;4917209;29;20028;-76
2023/12/16 07:22:29;;;;;;;19.88;5.05;;;8.00;99.90;;;;;;4917186;29;20039;-75
2023/12/16 07:24:56;;;;;;;20.77;4.78;;;8.00;99.90;;;;;;4900539;29;20046;-76
2023/12/16 07:27:22;;;;;;;22.70;4.63;;;8.10;99.90;;;;;;4917592;29;20032;-76
2023/12/16 07:29:50;;;;;;;16.92;3.90;;;8.00;99.90;;;;;;4900840;29;20404;-76
2023/12/16 07:32:15;;;;;;;24.42;4.82;;;8.10;99.90;;;;;;4900944;29;20067;-75
2023/12/16 07:34:41;;;;;;;20.95;4.25;;;8.10;99.90;;;;;;4884870;29;20079;-76
2023/12/16 07:37:07;;;;;;;21.98;4.72;;;8.00;99.90;;;;;;4900284;29;20032;-76
2023/12/16 07:39:32;;;;;;;18.73;4.53;;;8.10;99.90;;;;;;4900224;29;20037;-75
2023/12/16 07:41:58;;;;;;;17.20;3.70;;;8.10;99.90;;;;;;4916759;29;20082;-75
2023/12/16 07:44:24;;;;;;;19.40;4.28;;;8.10;99.90;;;;;;4917046;29;20485;-76
2023/12/16 07:46:50;;;;;;;21.00;4.40;;;8.10;99.90;;;;;;4916596;29;20531;-76
2023/12/16 07:49:17;;;;;;;21.67;4.07;;;8.00;99.90;;;;;;4917133;29;20032;-75
2023/12/16 07:51:43;;;;;;;23.98;4.72;;;8.10;99.90;;;;;;4885163;29;20036;-75
2023/12/16 07:54:11;;;;;;;19.67;4.90;;;8.10;99.90;;;;;;4916754;29;20191;-75
2023/12/16 07:56:36;;;;;;;19.27;5.10;;;8.00;99.90;;;;;;4900030;29;20385;-75
2023/12/16 07:59:02;;;;;;;23.35;4.20;;;8.00;99.90;;;;;;4899844;29;20040;-77
2023/12/16 08:01:27;;;;;;;16.92;3.92;;;8.00;99.90;;;;;;4884443;29;20035;-75
2023/12/16 08:03:53;;;;;;;24.25;4.35;;;8.10;99.90;;;;;;4917189;29;20039;-75
2023/12/16 08:06:20;;;;;;;21.95;4.35;;;8.10;99.90;;;;;;4900150;29;20050;-79
2023/12/16 08:08:46;;;;;;;19.88;4.38;;;8.10;99.90;;;;;;4900296;29;20092;-79
2023/12/16 08:11:12;;;;;;;20.92;4.55;;;8.00;99.90;;;;;;4899747;29;20044;-79
2023/12/16 08:13:38;;;;;;;22.15;4.35;;;8.00;99.90;;;;;;4916427;29;20059;-79
2023/12/16 08:16:08;;;;;;;23.40;4.88;;;8.00;99.90;;;;;;4900072;29;20091;-78
2023/12/16 08:18:34;;;;;;;20.52;4.55;;;8.00;99.90;;;;;;4900387;29;20123;-77
2023/12/16 08:21:00;;;;;;;26.13;4.65;;;8.00;99.90;;;;;;4899847;29;20402;-76
2023/12/16 08:23:26;;;;;;;22.77;4.68;;;8.00;99.90;;;;;;4899544;29;20036;-79
2023/12/16 08:25:52;;;;;;;27.17;5.13;;;8.00;99.90;;;;;;4916949;29;20491;-79
2023/12/16 08:28:17;;;;;;;18.38;3.47;;;8.00;99.90;;;;;;4916816;29;20039;-79
2023/12/16 08:30:44;;;;;;;23.92;4.30;;;8.00;99.90;;;;;;4884167;29;20377;-79
2023/12/16 08:33:10;;;;;;;17.40;3.42;;;8.10;99.90;;;;;;4883708;29;20036;-79
2023/12/16 08:35:43;;;;;;;17.23;3.85;;;8.10;99.90;;;;;;4899315;29;20453;-79
2023/12/16 08:38:08;;;;;;;18.67;3.92;;;8.10;99.90;;;;;;4899281;29;20421;-76
2023/12/16 08:40:37;;;;;;;22.13;3.42;;;8.10;99.90;;;;;;4883864;29;20044;-74
2023/12/16 08:43:03;;;;;;;18.92;3.72;;;8.10;99.90;;;;;;4899645;29;20035;-76
2023/12/16 08:45:28;;;;;;;23.90;4.05;;;8.10;99.90;;;;;;4884133;29;20389;-75
2023/12/16 08:47:54;;;;;;;20.85;3.78;;;8.10;99.90;;;;;;4899580;29;20039;-75
2023/12/16 08:50:22;;;;;;;18.17;3.78;;;8.10;99.90;;;;;;4916241;29;20446;-76
2023/12/16 08:52:48;;;;;;;21.60;3.50;;;8.20;99.90;;;;;;4899740;29;20040;-79
2023/12/16 08:55:13;;;;;;;18.58;3.83;;;8.30;99.90;;;;;;4900035;29;20183;-78
2023/12/16 08:57:39;;;;;;;14.77;3.88;;;8.30;99.90;;;;;;4920697;29;20028;-79
2023/12/16 09:00:08;;;;;;;18.75;3.50;;;8.40;99.90;;;;;;4923141;29;20140;-74
2023/12/16 09:02:34;;;;;;;21.90;3.47;;;8.40;99.90;;;;;;4925125;29;20032;-75
2023/12/16 09:04:59;;;;;;;20.40;3.83;;;8.50;99.90;;;;;;4920713;29;20350;-76
2023/12/16 09:07:25;;;;;;;26.80;3.85;;;8.50;99.90;;;;;;4904042;29;20435;-74
2023/12/16 09:09:51;;;;;;;21.23;3.83;;;8.50;99.90;;;;;;4903611;29;20579;-74
2023/12/16 09:12:16;;;;;;;21.27;4.50;;;8.60;99.90;;;;;;4920729;29;20032;-74
2023/12/16 09:14:42;;;;;;;18.52;3.53;;;8.60;99.90;;;;;;4920316;29;20028;-76
2023/12/16 09:17:08;;;;;;;28.20;4.07;;;8.60;99.90;;;;;;4903234;29;20039;-75
2023/12/16 09:19:34;;;;;;;14.43;3.50;;;8.60;99.90;;;;;;4903056;29;20028;-75
2023/12/16 09:21:59;;;;;;;20.50;3.58;;;8.60;99.90;;;;;;4920125;29;20067;-79
2023/12/16 09:24:25;;;;;;;21.17;3.28;;;8.60;99.90;;;;;;4903086;29;20071;-76
2023/12/16 09:26:51;;;;;;;19.00;3.88;;;8.60;99.90;;;;;;4887193;29;20088;-76
2023/12/16 09:29:16;;;;;;;16.73;3.55;;;8.60;99.90;;;;;;4920104;29;20043;-74
2023/12/16 09:31:43;;;;;;;19.40;3.35;;;8.70;99.90;;;;;;4902456;29;20421;-77
2023/12/16 09:34:09;;;;;;;21.35;4.75;;;8.70;99.90;;;;;;4903089;29;20040;-73
2023/12/16 09:36:35;;;;;;;19.63;4.18;;;8.70;99.90;;;;;;4902612;29;20429;-75
2023/12/16 09:39:00;;;;;;;22.00;4.32;;;8.70;99.90;;;;;;4919568;29;20032;-73
2023/12/16 09:41:31;;;;;;;18.73;4.10;;;8.70;99.90;;;;;;4902575;29;20063;-73
2023/12/16 09:43:59;;;;;;;19.48;3.70;;;8.70;99.90;;;;;;4919555;29;20067;-75
2023/12/16 09:46:29;;;;;;;25.55;4.25;;;8.70;99.90;;;;;;4887783;29;20036;-75
2023/12/16 09:48:55;;;;;;;18.75;4.20;;;8.70;99.90;;;;;;4902780;29;20060;-77
2023/12/16 09:51:22;;;;;;;27.13;5.60;;;8.70;99.90;;;;;;4919157;29;20067;-79
2023/12/16 09:53:54;;;;;;;24.52;4.75;;;8.80;99.90;;;;;;4919526;29;20058;-75
2023/12/16 09:56:21;;;;;;;23.60;4.68;;;8.80;99.90;;;;;;4902406;29;20553;-85
2023/12/16 09:58:51;;;;;;;23.58;5.97;;;8.80;99.90;;;;;;4920597;29;20084;-80
2023/12/16 10:01:17;;;;;;;30.45;5.68;;;8.90;99.90;;;;;;4919695;29;20024;-80
2023/12/16 10:03:45;;;;;;;21.70;4.85;;;8.90;99.90;;;;;;4902195;29;20036;-78
2023/12/16 10:06:11;;;;;;;21.75;6.28;;;8.90;99.90;;;;;;4886683;29;20063;-77
2023/12/16 10:08:38;;;;;;;24.35;5.72;;;9.00;99.90;;;;;;4901823;29;20354;-77
2023/12/16 10:11:05;;;;;;;27.17;6.80;;;9.00;99.90;;;;;;4900556;29;20182;-76
2023/12/16 10:13:33;;;;;;;32.08;7.22;;;9.00;99.90;;;;;;4901593;29;20090;-76
2023/12/16 10:15:59;;;;;;;31.85;6.70;;;9.00;99.90;;;;;;4901616;29;20039;-79
2023/12/16 10:18:27;;;;;;;19.02;5.97;;;9.00;99.90;;;;;;4886197;29;20036;-78
2023/12/16 10:20:55;;;;;;;19.27;5.85;;;9.00;99.90;;;;;;4918581;29;20043;-80
2023/12/16 10:23:22;;;;;;;24.00;6.60;;;9.00;99.90;;;;;;4901939;29;20028;-80
2023/12/16 10:25:48;;;;;;;22.70;6.57;;;9.00;99.90;;;;;;4901524;29;20118;-79
2023/12/16 10:28:14;;;;;;;20.90;6.00;;;9.00;99.90;;;;;;4902133;29;20176;-77
2023/12/16 10:30:41;;;;;;;26.90;7.05;;;9.10;99.90;;;;;;4918258;29;20059;-77
2023/12/16 10:33:08;;;;;;;26.55;7.07;;;9.00;99.90;;;;;;4901249;29;20398;-77
2023/12/16 10:35:36;;;;;;;40.15;7.13;;;9.00;99.90;;;;;;4918113;29;20092;-77
2023/12/16 10:38:02;;;;;;;29.02;7.07;;;9.00;99.90;;;;;;4918255;29;20062;-77
2023/12/16 10:40:28;;;;;;;22.92;6.72;;;9.10;99.90;;;;;;4870876;29;20037;-77
2023/12/16 10:42:54;;;;;;;33.10;8.30;;;9.10;99.90;;;;;;4901492;29;20036;-74
2023/12/16 10:45:20;;;;;;;31.35;8.63;;;9.20;99.90;;;;;;4918062;29;20034;-75
2023/12/16 10:47:50;;;;;;;31.77;9.02;;;9.10;99.90;;;;;;4900961;29;20532;-74
2023/12/16 10:50:16;;;;;;;33.75;8.50;;;9.20;99.90;;;;;;4900884;29;20119;-74
2023/12/16 10:52:56;;;;;;;31.75;9.23;;;9.20;99.90;;;;;;4900926;29;20472;-83
2023/12/16 10:55:30;;;;;;;29.00;8.73;;;9.20;99.90;;;;;;4917935;29;20036;-82
2023/12/16 10:58:11;;;;;;;34.53;9.63;;;9.30;99.90;;;;;;4902748;29;20351;-82
2023/12/16 11:00:38;;;;;;;34.67;9.38;;;9.30;99.90;;;;;;4902221;29;20028;-83
2023/12/16 11:03:07;;;;;;;30.98;9.77;;;9.40;99.90;;;;;;4901418;29;20076;-79
2023/12/16 11:05:42;;;;;;;32.42;9.65;;;9.40;99.90;;;;;;4900740;29;20032;-79
2023/12/16 11:08:09;;;;;;;34.17;10.80;;;9.40;99.90;;;;;;4917680;29;20032;-78
2023/12/16 11:10:35;;;;;;;31.08;11.05;;;9.40;99.90;;;;;;4885293;29;20468;-78
2023/12/16 11:13:05;;;;;;;29.45;9.60;;;9.30;99.90;;;;;;4917763;29;20158;-79
2023/12/16 11:15:35;;;;;;;34.60;13.05;;;9.30;99.90;;;;;;4917844;29;20028;-78
2023/12/16 11:18:04;;;;;;;27.27;10.55;;;9.40;99.90;;;;;;4884789;29;20028;-78
2023/12/16 11:20:40;;;;;;;28.45;9.82;;;9.40;99.90;;;;;;4917187;29;20035;-78
2023/12/16 11:23:06;;;;;;;36.13;11.20;;;9.40;99.90;;;;;;4901171;29;20350;-78
2023/12/16 11:25:34;;;;;;;31.30;11.10;;;9.40;99.90;;;;;;4885806;29;20051;-78
2023/12/16 11:28:02;;;;;;;37.22;11.10;;;9.40;99.90;;;;;;4902429;29;20381;-78
2023/12/16 11:30:32;;;;;;;38.88;11.63;;;9.40;99.90;;;;;;4920828;29;20454;-78
2023/12/16 11:32:59;;;;;;;33.45;11.45;;;9.40;99.90;;;;;;4903231;29;20127;-80
2023/12/16 11:35:37;;;;;;;32.80;10.65;;;9.40;99.90;;;;;;4888114;29;20036;-79
2023/12/16 11:38:04;;;;;;;33.10;10.50;;;9.40;99.90;;;;;;4902415;29;20039;-80
2023/12/16 11:40:42;;;;;;;33.10;11.07;;;9.50;99.90;;;;;;4902599;29;20028;-76
2023/12/16 11:43:09;;;;;;;30.45;10.90;;;9.40;99.90;;;;;;4918047;29;20036;-78
2023/12/16 11:45:39;;;;;;;38.40;12.18;;;9.40;99.90;;;;;;4869893;29;20454;-78
2023/12/16 11:48:05;;;;;;;34.30;13.10;;;9.40;99.90;;;;;;4917657;29;20039;-78
2023/12/16 11:50:34;;;;;;;36.63;12.25;;;9.40;99.90;;;;;;4884800;29;20036;-78
2023/12/16 11:53:00;;;;;;;28.98;12.07;;;9.40;99.90;;;;;;4885310;29;20127;-79
2023/12/16 11:55:26;;;;;;;35.03;11.48;;;9.40;99.90;;;;;;4916764;29;20028;-78
2023/12/16 11:57:53;;;;;;;26.85;11.55;;;9.40;99.90;;;;;;4899662;29;20397;-79
2023/12/16 12:00:19;;;;;;;36.17;12.93;;;9.40;99.90;;;;;;4900483;29;20028;-78
2023/12/16 12:02:47;;;;;;;31.77;12.18;;;9.40;99.90;;;;;;4899940;29;20029;-78
2023/12/16 12:05:14;;;;;;;31.88;12.27;;;9.40;99.90;;;;;;4916872;29;20043;-78
2023/12/16 12:07:40;;;;;;;40.17;13.18;;;9.30;99.90;;;;;;4900324;29;20032;-77
2023/12/16 12:10:06;;;;;;;34.83;13.40;;;9.30;99.90;;;;;;4884170;29;20036;-77
2023/12/16 12:12:32;;;;;;;33.03;12.50;;;9.30;99.90;;;;;;4884503;29;20528;-78
2023/12/16 12:14:57;;;;;;;40.08;13.50;;;9.30;99.90;;;;;;4884530;29;20131;-78
2023/12/16 12:17:23;;;;;;;35.63;12.43;;;9.30;99.90;;;;;;4899544;29;20028;-78
2023/12/16 12:19:49;;;;;;;27.85;13.02;;;9.30;99.90;;;;;;4899374;29;20032;-79
2023/12/16 12:22:19;;;;;;;38.78;12.20;;;9.30;99.90;;;;;;4883559;29;20047;-78
2023/12/16 12:24:44;;;;;;;32.45;12.80;;;9.30;99.90;;;;;;4899746;29;20064;-77
2023/12/16 12:27:10;;;;;;;30.70;12.60;;;9.40;99.90;;;;;;4883805;29;20071;-78
2023/12/16 12:30:01;;;;;;;32.33;12.55;;;9.30;99.90;;;;;;4899667;29;20080;-77
2023/12/16 12:32:29;;;;;;;27.98;12.18;;;9.40;99.90;;;;;;4915986;29;20036;-77
2023/12/16 12:35:02;;;;;;;31.30;13.13;;;9.40;99.90;;;;;;4899173;29;20036;-78
2023/12/16 12:37:41;;;;;;;36.75;13.15;;;9.40;99.90;;;;;;4916618;29;20385;-79
2023/12/16 12:40:13;;;;;;;33.80;13.63;;;9.40;99.90;;;;;;4883708;29;20071;-79
2023/12/16 12:42:50;;;;;;;35.55;13.57;;;9.30;99.90;;;;;;4899412;29;20548;-78